sensor_id;sensor_type;location;lat;lon;timestamp;P1;durP1;ratioP1;P2;durP2;ratioP2
37907;SDS011;23740;51.550;6.846;2023-07-09T00:01:48;3.90;;;3.28;;
37907;SDS011;23740;51.550;6.846;2023-07-09T00:04:16;4.45;;;2.95;;
37907;SDS011;23740;51.550;6.846;2023-07-09T00:06:45;6.30;;;3.72;;
37907;SDS011;23740;51.550;6.846;2023-07-09T00:09:13;5.43;;;3.45;;
37907;SDS011;23740;51.550;6.846;2023-07-09T00:11:42;4.85;;;3.05;;
37907;SDS011;23740;51.550;6.846;2023-07-09T00:14:10;5.35;;;3.30;;
37907;SDS011;23740;51.550;6.846;2023-07-09T00:16:41;3.92;;;3.10;;
37907;SDS011;23740;51.550;6.846;2023-07-09T00:19:12;3.50;;;2.88;;
37907;SDS011;23740;51.550;6.846;2023-07-09T00:21:43;4.25;;;3.10;;
37907;SDS011;23740;51.550;6.846;2023-07-09T00:24:11;4.00;;;3.38;;
37907;SDS011;23740;51.550;6.846;2023-07-09T00:26:40;4.00;;;3.20;;
37907;SDS011;23740;51.550;6.846;2023-07-09T00:29:09;3.78;;;3.30;;
37907;SDS011;23740;51.550;6.846;2023-07-09T00:31:37;4.88;;;3.42;;
37907;SDS011;23740;51.550;6.846;2023-07-09T00:34:08;4.63;;;3.13;;
37907;SDS011;23740;51.550;6.846;2023-07-09T00:36:39;6.82;;;3.25;;
37907;SDS011;23740;51.550;6.846;2023-07-09T00:39:13;4.75;;;3.42;;
37907;SDS011;23740;51.550;6.846;2023-07-09T00:41:44;4.10;;;3.38;;
37907;SDS011;23740;51.550;6.846;2023-07-09T00:47:18;5.55;;;3.45;;
37907;SDS011;23740;51.550;6.846;2023-07-09T00:49:52;6.10;;;3.90;;
37907;SDS011;23740;51.550;6.846;2023-07-09T00:52:30;5.00;;;3.60;;
37907;SDS011;23740;51.550;6.846;2023-07-09T00:55:03;3.80;;;3.00;;
37907;SDS011;23740;51.550;6.846;2023-07-09T00:57:35;4.80;;;2.97;;
37907;SDS011;23740;51.550;6.846;2023-07-09T01:00:05;4.60;;;3.47;;
37907;SDS011;23740;51.550;6.846;2023-07-09T01:02:36;4.88;;;3.35;;
37907;SDS011;23740;51.550;6.846;2023-07-09T01:05:05;4.50;;;3.58;;
37907;SDS011;23740;51.550;6.846;2023-07-09T01:07:34;4.30;;;3.80;;
37907;SDS011;23740;51.550;6.846;2023-07-09T01:10:02;4.78;;;3.40;;
37907;SDS011;23740;51.550;6.846;2023-07-09T01:12:31;4.57;;;3.50;;
37907;SDS011;23740;51.550;6.846;2023-07-09T01:14:58;5.30;;;3.67;;
37907;SDS011;23740;51.550;6.846;2023-07-09T01:17:27;4.30;;;3.67;;
37907;SDS011;23740;51.550;6.846;2023-07-09T01:19:56;5.25;;;3.70;;
37907;SDS011;23740;51.550;6.846;2023-07-09T01:22:26;5.28;;;3.78;;
37907;SDS011;23740;51.550;6.846;2023-07-09T01:24:57;3.95;;;3.58;;
37907;SDS011;23740;51.550;6.846;2023-07-09T01:27:28;4.15;;;3.13;;
37907;SDS011;23740;51.550;6.846;2023-07-09T01:30:00;4.75;;;3.67;;
37907;SDS011;23740;51.550;6.846;2023-07-09T01:32:29;4.05;;;3.22;;
37907;SDS011;23740;51.550;6.846;2023-07-09T01:34:58;4.70;;;3.75;;
37907;SDS011;23740;51.550;6.846;2023-07-09T01:37:33;4.60;;;3.85;;
37907;SDS011;23740;51.550;6.846;2023-07-09T01:40:03;5.90;;;3.35;;
37907;SDS011;23740;51.550;6.846;2023-07-09T01:42:52;5.25;;;3.42;;
37907;SDS011;23740;51.550;6.846;2023-07-09T01:45:21;6.07;;;3.90;;
37907;SDS011;23740;51.550;6.846;2023-07-09T01:47:49;5.80;;;3.47;;
37907;SDS011;23740;51.550;6.846;2023-07-09T01:50:20;5.53;;;3.67;;
37907;SDS011;23740;51.550;6.846;2023-07-09T01:52:52;6.55;;;3.72;;
37907;SDS011;23740;51.550;6.846;2023-07-09T01:55:21;4.90;;;3.85;;
37907;SDS011;23740;51.550;6.846;2023-07-09T01:57:49;4.75;;;3.38;;
37907;SDS011;23740;51.550;6.846;2023-07-09T02:00:18;4.00;;;3.58;;
37907;SDS011;23740;51.550;6.846;2023-07-09T02:02:46;4.03;;;3.63;;
37907;SDS011;23740;51.550;6.846;2023-07-09T02:05:15;6.18;;;3.67;;
37907;SDS011;23740;51.550;6.846;2023-07-09T02:07:44;4.45;;;3.25;;
37907;SDS011;23740;51.550;6.846;2023-07-09T02:10:14;3.83;;;3.00;;
37907;SDS011;23740;51.550;6.846;2023-07-09T02:12:42;5.70;;;3.83;;
37907;SDS011;23740;51.550;6.846;2023-07-09T02:15:11;5.60;;;3.22;;
37907;SDS011;23740;51.550;6.846;2023-07-09T02:17:39;4.18;;;3.78;;
37907;SDS011;23740;51.550;6.846;2023-07-09T02:20:08;5.90;;;3.95;;
37907;SDS011;23740;51.550;6.846;2023-07-09T02:22:37;5.10;;;3.30;;
37907;SDS011;23740;51.550;6.846;2023-07-09T02:25:06;4.88;;;3.55;;
37907;SDS011;23740;51.550;6.846;2023-07-09T02:27:36;4.68;;;4.03;;
37907;SDS011;23740;51.550;6.846;2023-07-09T02:30:05;6.03;;;4.15;;
37907;SDS011;23740;51.550;6.846;2023-07-09T02:32:34;7.68;;;4.25;;
37907;SDS011;23740;51.550;6.846;2023-07-09T02:35:02;6.00;;;3.72;;
37907;SDS011;23740;51.550;6.846;2023-07-09T02:37:30;4.45;;;3.78;;
37907;SDS011;23740;51.550;6.846;2023-07-09T02:39:59;3.80;;;3.47;;
37907;SDS011;23740;51.550;6.846;2023-07-09T02:42:27;4.63;;;4.07;;
37907;SDS011;23740;51.550;6.846;2023-07-09T02:44:56;5.18;;;3.72;;
37907;SDS011;23740;51.550;6.846;2023-07-09T02:47:24;4.93;;;3.90;;
37907;SDS011;23740;51.550;6.846;2023-07-09T02:49:52;5.38;;;3.95;;
37907;SDS011;23740;51.550;6.846;2023-07-09T02:52:19;4.63;;;3.78;;
37907;SDS011;23740;51.550;6.846;2023-07-09T02:54:47;4.65;;;4.15;;
37907;SDS011;23740;51.550;6.846;2023-07-09T02:57:15;5.70;;;3.88;;
37907;SDS011;23740;51.550;6.846;2023-07-09T02:59:43;4.57;;;3.00;;
37907;SDS011;23740;51.550;6.846;2023-07-09T03:02:12;5.38;;;3.95;;
37907;SDS011;23740;51.550;6.846;2023-07-09T03:04:40;6.85;;;3.88;;
37907;SDS011;23740;51.550;6.846;2023-07-09T03:07:10;4.68;;;3.58;;
37907;SDS011;23740;51.550;6.846;2023-07-09T03:09:38;5.93;;;4.22;;
37907;SDS011;23740;51.550;6.846;2023-07-09T03:12:07;4.82;;;3.97;;
37907;SDS011;23740;51.550;6.846;2023-07-09T03:14:35;5.80;;;3.72;;
37907;SDS011;23740;51.550;6.846;2023-07-09T03:17:03;5.00;;;3.42;;
37907;SDS011;23740;51.550;6.846;2023-07-09T03:19:36;5.50;;;4.07;;
37907;SDS011;23740;51.550;6.846;2023-07-09T03:22:03;4.43;;;3.70;;
37907;SDS011;23740;51.550;6.846;2023-07-09T03:24:31;7.15;;;3.80;;
37907;SDS011;23740;51.550;6.846;2023-07-09T03:26:59;5.20;;;3.78;;
37907;SDS011;23740;51.550;6.846;2023-07-09T03:29:27;6.43;;;3.83;;
37907;SDS011;23740;51.550;6.846;2023-07-09T03:31:55;5.28;;;3.95;;
37907;SDS011;23740;51.550;6.846;2023-07-09T03:34:23;5.38;;;3.67;;
37907;SDS011;23740;51.550;6.846;2023-07-09T03:36:52;5.43;;;4.10;;
37907;SDS011;23740;51.550;6.846;2023-07-09T03:39:20;5.47;;;3.53;;
37907;SDS011;23740;51.550;6.846;2023-07-09T03:41:47;4.90;;;3.78;;
37907;SDS011;23740;51.550;6.846;2023-07-09T03:44:15;4.85;;;3.78;;
37907;SDS011;23740;51.550;6.846;2023-07-09T03:46:43;6.55;;;4.43;;
37907;SDS011;23740;51.550;6.846;2023-07-09T03:49:11;6.35;;;4.28;;
37907;SDS011;23740;51.550;6.846;2023-07-09T03:51:39;5.50;;;3.97;;
37907;SDS011;23740;51.550;6.846;2023-07-09T03:54:08;4.00;;;3.50;;
37907;SDS011;23740;51.550;6.846;2023-07-09T03:56:36;5.03;;;4.15;;
37907;SDS011;23740;51.550;6.846;2023-07-09T03:59:04;5.70;;;4.00;;
37907;SDS011;23740;51.550;6.846;2023-07-09T04:01:32;4.68;;;4.10;;
37907;SDS011;23740;51.550;6.846;2023-07-09T04:04:00;4.97;;;3.85;;
37907;SDS011;23740;51.550;6.846;2023-07-09T04:06:28;8.32;;;4.25;;
37907;SDS011;23740;51.550;6.846;2023-07-09T04:08:56;4.78;;;3.60;;
37907;SDS011;23740;51.550;6.846;2023-07-09T04:11:25;5.43;;;3.60;;
37907;SDS011;23740;51.550;6.846;2023-07-09T04:13:53;5.88;;;4.00;;
37907;SDS011;23740;51.550;6.846;2023-07-09T04:16:21;6.45;;;3.42;;
37907;SDS011;23740;51.550;6.846;2023-07-09T04:18:50;4.03;;;3.58;;
37907;SDS011;23740;51.550;6.846;2023-07-09T04:21:17;4.95;;;4.00;;
37907;SDS011;23740;51.550;6.846;2023-07-09T04:23:45;5.97;;;4.40;;
37907;SDS011;23740;51.550;6.846;2023-07-09T04:26:15;4.95;;;4.45;;
37907;SDS011;23740;51.550;6.846;2023-07-09T04:28:45;6.28;;;4.43;;
37907;SDS011;23740;51.550;6.846;2023-07-09T04:31:12;7.07;;;4.15;;
37907;SDS011;23740;51.550;6.846;2023-07-09T04:33:40;5.20;;;4.07;;
37907;SDS011;23740;51.550;6.846;2023-07-09T04:36:09;5.32;;;4.47;;
37907;SDS011;23740;51.550;6.846;2023-07-09T04:38:39;5.47;;;3.97;;
37907;SDS011;23740;51.550;6.846;2023-07-09T04:41:07;5.32;;;4.53;;
37907;SDS011;23740;51.550;6.846;2023-07-09T04:43:35;5.38;;;4.07;;
37907;SDS011;23740;51.550;6.846;2023-07-09T04:46:07;5.70;;;3.90;;
37907;SDS011;23740;51.550;6.846;2023-07-09T04:48:35;6.10;;;4.25;;
37907;SDS011;23740;51.550;6.846;2023-07-09T04:51:02;5.35;;;4.80;;
37907;SDS011;23740;51.550;6.846;2023-07-09T04:53:30;5.38;;;4.07;;
37907;SDS011;23740;51.550;6.846;2023-07-09T04:55:58;7.65;;;4.32;;
37907;SDS011;23740;51.550;6.846;2023-07-09T04:58:28;6.82;;;4.53;;
37907;SDS011;23740;51.550;6.846;2023-07-09T05:00:56;5.82;;;4.10;;
37907;SDS011;23740;51.550;6.846;2023-07-09T05:03:25;5.35;;;4.20;;
37907;SDS011;23740;51.550;6.846;2023-07-09T05:05:53;4.75;;;3.95;;
37907;SDS011;23740;51.550;6.846;2023-07-09T05:08:22;5.80;;;4.65;;
37907;SDS011;23740;51.550;6.846;2023-07-09T05:10:51;6.13;;;4.75;;
37907;SDS011;23740;51.550;6.846;2023-07-09T05:13:19;6.93;;;4.60;;
37907;SDS011;23740;51.550;6.846;2023-07-09T05:15:48;5.20;;;4.00;;
37907;SDS011;23740;51.550;6.846;2023-07-09T05:18:17;5.15;;;4.50;;
37907;SDS011;23740;51.550;6.846;2023-07-09T05:20:47;6.72;;;4.45;;
37907;SDS011;23740;51.550;6.846;2023-07-09T05:23:15;5.10;;;4.13;;
37907;SDS011;23740;51.550;6.846;2023-07-09T05:25:43;6.35;;;4.28;;
37907;SDS011;23740;51.550;6.846;2023-07-09T05:28:11;5.32;;;4.82;;
37907;SDS011;23740;51.550;6.846;2023-07-09T05:30:40;6.82;;;5.18;;
37907;SDS011;23740;51.550;6.846;2023-07-09T05:33:09;6.43;;;5.05;;
37907;SDS011;23740;51.550;6.846;2023-07-09T05:35:36;6.22;;;4.03;;
37907;SDS011;23740;51.550;6.846;2023-07-09T05:38:06;6.53;;;4.57;;
37907;SDS011;23740;51.550;6.846;2023-07-09T05:40:33;8.55;;;5.00;;
37907;SDS011;23740;51.550;6.846;2023-07-09T05:43:02;7.35;;;4.85;;
37907;SDS011;23740;51.550;6.846;2023-07-09T05:45:30;6.35;;;4.43;;
37907;SDS011;23740;51.550;6.846;2023-07-09T05:47:58;6.15;;;4.88;;
37907;SDS011;23740;51.550;6.846;2023-07-09T05:50:27;5.20;;;4.47;;
37907;SDS011;23740;51.550;6.846;2023-07-09T05:52:55;6.28;;;4.40;;
37907;SDS011;23740;51.550;6.846;2023-07-09T05:55:24;6.60;;;4.25;;
37907;SDS011;23740;51.550;6.846;2023-07-09T05:57:52;6.63;;;5.75;;
37907;SDS011;23740;51.550;6.846;2023-07-09T06:00:20;5.20;;;4.43;;
37907;SDS011;23740;51.550;6.846;2023-07-09T06:02:48;7.10;;;4.93;;
37907;SDS011;23740;51.550;6.846;2023-07-09T06:05:16;5.85;;;4.80;;
37907;SDS011;23740;51.550;6.846;2023-07-09T06:07:44;5.70;;;4.50;;
37907;SDS011;23740;51.550;6.846;2023-07-09T06:10:12;5.47;;;4.97;;
37907;SDS011;23740;51.550;6.846;2023-07-09T06:12:41;6.72;;;4.40;;
37907;SDS011;23740;51.550;6.846;2023-07-09T06:15:09;5.50;;;4.63;;
37907;SDS011;23740;51.550;6.846;2023-07-09T06:17:39;7.15;;;5.63;;
37907;SDS011;23740;51.550;6.846;2023-07-09T06:20:11;7.97;;;5.05;;
37907;SDS011;23740;51.550;6.846;2023-07-09T06:22:39;5.55;;;4.53;;
37907;SDS011;23740;51.550;6.846;2023-07-09T06:25:07;5.82;;;4.75;;
37907;SDS011;23740;51.550;6.846;2023-07-09T06:27:35;5.80;;;5.03;;
37907;SDS011;23740;51.550;6.846;2023-07-09T06:30:05;5.78;;;4.65;;
37907;SDS011;23740;51.550;6.846;2023-07-09T06:32:34;8.35;;;5.18;;
37907;SDS011;23740;51.550;6.846;2023-07-09T06:35:02;5.35;;;4.85;;
37907;SDS011;23740;51.550;6.846;2023-07-09T06:37:30;5.07;;;4.45;;
37907;SDS011;23740;51.550;6.846;2023-07-09T06:39:58;6.18;;;5.07;;
37907;SDS011;23740;51.550;6.846;2023-07-09T06:42:26;6.65;;;4.55;;
37907;SDS011;23740;51.550;6.846;2023-07-09T06:44:54;5.57;;;5.07;;
37907;SDS011;23740;51.550;6.846;2023-07-09T06:47:23;5.05;;;4.43;;
37907;SDS011;23740;51.550;6.846;2023-07-09T06:49:51;7.32;;;5.57;;
37907;SDS011;23740;51.550;6.846;2023-07-09T06:52:19;5.45;;;4.65;;
37907;SDS011;23740;51.550;6.846;2023-07-09T06:54:47;5.57;;;5.00;;
37907;SDS011;23740;51.550;6.846;2023-07-09T06:57:15;6.68;;;5.20;;
37907;SDS011;23740;51.550;6.846;2023-07-09T06:59:43;8.05;;;5.55;;
37907;SDS011;23740;51.550;6.846;2023-07-09T07:02:11;6.22;;;5.03;;
37907;SDS011;23740;51.550;6.846;2023-07-09T07:04:41;5.82;;;4.55;;
37907;SDS011;23740;51.550;6.846;2023-07-09T07:07:11;5.43;;;4.55;;
37907;SDS011;23740;51.550;6.846;2023-07-09T07:09:40;5.47;;;4.47;;
37907;SDS011;23740;51.550;6.846;2023-07-09T07:12:10;5.72;;;4.88;;
37907;SDS011;23740;51.550;6.846;2023-07-09T07:14:38;5.45;;;4.35;;
37907;SDS011;23740;51.550;6.846;2023-07-09T07:17:07;7.25;;;5.35;;
37907;SDS011;23740;51.550;6.846;2023-07-09T07:19:35;7.90;;;5.53;;
37907;SDS011;23740;51.550;6.846;2023-07-09T07:22:04;5.28;;;4.78;;
37907;SDS011;23740;51.550;6.846;2023-07-09T07:24:33;6.47;;;4.80;;
37907;SDS011;23740;51.550;6.846;2023-07-09T07:27:01;6.93;;;5.70;;
37907;SDS011;23740;51.550;6.846;2023-07-09T07:29:29;6.90;;;5.47;;
37907;SDS011;23740;51.550;6.846;2023-07-09T07:31:57;6.65;;;5.35;;
37907;SDS011;23740;51.550;6.846;2023-07-09T07:34:27;6.10;;;5.25;;
37907;SDS011;23740;51.550;6.846;2023-07-09T07:36:55;7.75;;;5.18;;
37907;SDS011;23740;51.550;6.846;2023-07-09T07:39:24;8.75;;;5.07;;
37907;SDS011;23740;51.550;6.846;2023-07-09T07:41:52;5.72;;;4.82;;
37907;SDS011;23740;51.550;6.846;2023-07-09T07:44:21;5.68;;;4.55;;
37907;SDS011;23740;51.550;6.846;2023-07-09T07:46:50;5.00;;;4.50;;
37907;SDS011;23740;51.550;6.846;2023-07-09T07:49:21;7.90;;;5.72;;
37907;SDS011;23740;51.550;6.846;2023-07-09T07:51:49;6.28;;;5.68;;
37907;SDS011;23740;51.550;6.846;2023-07-09T07:54:16;8.25;;;7.55;;
37907;SDS011;23740;51.550;6.846;2023-07-09T07:56:46;8.15;;;6.82;;
37907;SDS011;23740;51.550;6.846;2023-07-09T07:59:14;7.07;;;6.38;;
37907;SDS011;23740;51.550;6.846;2023-07-09T08:01:42;8.05;;;7.35;;
37907;SDS011;23740;51.550;6.846;2023-07-09T08:04:10;8.18;;;7.40;;
37907;SDS011;23740;51.550;6.846;2023-07-09T08:06:38;8.57;;;7.88;;
37907;SDS011;23740;51.550;6.846;2023-07-09T08:09:06;8.27;;;7.57;;
37907;SDS011;23740;51.550;6.846;2023-07-09T08:11:34;8.13;;;7.43;;
37907;SDS011;23740;51.550;6.846;2023-07-09T08:14:04;7.32;;;6.72;;
37907;SDS011;23740;51.550;6.846;2023-07-09T08:16:32;8.35;;;7.65;;
37907;SDS011;23740;51.550;6.846;2023-07-09T08:19:00;8.93;;;8.13;;
37907;SDS011;23740;51.550;6.846;2023-07-09T08:21:28;8.85;;;8.15;;
37907;SDS011;23740;51.550;6.846;2023-07-09T08:23:56;7.68;;;7.07;;
37907;SDS011;23740;51.550;6.846;2023-07-09T08:26:24;10.57;;;9.88;;
37907;SDS011;23740;51.550;6.846;2023-07-09T08:28:55;7.68;;;7.07;;
37907;SDS011;23740;51.550;6.846;2023-07-09T08:31:24;6.93;;;6.32;;
37907;SDS011;23740;51.550;6.846;2023-07-09T08:33:52;7.13;;;6.57;;
37907;SDS011;23740;51.550;6.846;2023-07-09T08:36:20;7.93;;;7.22;;
37907;SDS011;23740;51.550;6.846;2023-07-09T08:38:48;8.32;;;7.63;;
37907;SDS011;23740;51.550;6.846;2023-07-09T08:41:20;7.13;;;6.53;;
37907;SDS011;23740;51.550;6.846;2023-07-09T08:46:27;8.90;;;8.20;;
37907;SDS011;23740;51.550;6.846;2023-07-09T08:49:04;6.95;;;6.35;;
37907;SDS011;23740;51.550;6.846;2023-07-09T08:51:41;8.02;;;7.20;;
37907;SDS011;23740;51.550;6.846;2023-07-09T08:54:12;6.63;;;6.13;;
37907;SDS011;23740;51.550;6.846;2023-07-09T08:56:43;7.22;;;6.57;;
37907;SDS011;23740;51.550;6.846;2023-07-09T08:59:11;7.22;;;6.55;;
37907;SDS011;23740;51.550;6.846;2023-07-09T09:01:45;6.85;;;6.22;;
37907;SDS011;23740;51.550;6.846;2023-07-09T09:04:19;6.50;;;6.00;;
37907;SDS011;23740;51.550;6.846;2023-07-09T09:06:50;7.82;;;7.13;;
37907;SDS011;23740;51.550;6.846;2023-07-09T09:09:22;6.55;;;5.93;;
37907;SDS011;23740;51.550;6.846;2023-07-09T09:11:56;6.25;;;5.75;;
37907;SDS011;23740;51.550;6.846;2023-07-09T09:14:27;7.05;;;6.35;;
37907;SDS011;23740;51.550;6.846;2023-07-09T09:17:02;5.55;;;5.15;;
37907;SDS011;23740;51.550;6.846;2023-07-09T09:19:31;7.07;;;6.53;;
37907;SDS011;23740;51.550;6.846;2023-07-09T09:22:04;6.40;;;5.90;;
37907;SDS011;23740;51.550;6.846;2023-07-09T09:24:37;6.45;;;5.85;;
37907;SDS011;23740;51.550;6.846;2023-07-09T09:27:07;6.65;;;5.70;;
37907;SDS011;23740;51.550;6.846;2023-07-09T09:29:35;5.22;;;4.82;;
37907;SDS011;23740;51.550;6.846;2023-07-09T09:34:44;7.20;;;6.68;;
37907;SDS011;23740;51.550;6.846;2023-07-09T09:37:12;6.32;;;5.78;;
37907;SDS011;23740;51.550;6.846;2023-07-09T09:39:39;7.38;;;5.80;;
37907;SDS011;23740;51.550;6.846;2023-07-09T09:42:10;5.68;;;5.18;;
37907;SDS011;23740;51.550;6.846;2023-07-09T09:44:42;5.47;;;5.00;;
37907;SDS011;23740;51.550;6.846;2023-07-09T09:47:10;5.25;;;4.72;;
37907;SDS011;23740;51.550;6.846;2023-07-09T09:49:40;6.10;;;5.53;;
37907;SDS011;23740;51.550;6.846;2023-07-09T09:52:10;5.55;;;5.10;;
37907;SDS011;23740;51.550;6.846;2023-07-09T09:57:16;6.03;;;4.32;;
37907;SDS011;23740;51.550;6.846;2023-07-09T09:59:44;6.00;;;5.40;;
37907;SDS011;23740;51.550;6.846;2023-07-09T10:02:15;5.78;;;5.22;;
37907;SDS011;23740;51.550;6.846;2023-07-09T10:04:46;4.88;;;4.53;;
37907;SDS011;23740;51.550;6.846;2023-07-09T10:07:23;5.15;;;4.35;;
37907;SDS011;23740;51.550;6.846;2023-07-09T10:10:00;6.30;;;4.80;;
37907;SDS011;23740;51.550;6.846;2023-07-09T10:12:32;5.07;;;4.50;;
37907;SDS011;23740;51.550;6.846;2023-07-09T10:15:08;6.25;;;5.50;;
37907;SDS011;23740;51.550;6.846;2023-07-09T10:17:42;5.22;;;4.75;;
37907;SDS011;23740;51.550;6.846;2023-07-09T10:20:20;7.50;;;4.57;;
37907;SDS011;23740;51.550;6.846;2023-07-09T10:22:54;5.18;;;4.78;;
37907;SDS011;23740;51.550;6.846;2023-07-09T10:25:31;5.93;;;5.35;;
37907;SDS011;23740;51.550;6.846;2023-07-09T10:28:09;5.32;;;4.82;;
37907;SDS011;23740;51.550;6.846;2023-07-09T10:30:49;6.30;;;5.80;;
37907;SDS011;23740;51.550;6.846;2023-07-09T10:33:23;6.00;;;5.38;;
37907;SDS011;23740;51.550;6.846;2023-07-09T10:35:57;5.63;;;5.15;;
37907;SDS011;23740;51.550;6.846;2023-07-09T10:38:34;6.63;;;4.72;;
37907;SDS011;23740;51.550;6.846;2023-07-09T10:41:07;5.45;;;4.90;;
37907;SDS011;23740;51.550;6.846;2023-07-09T10:43:42;5.85;;;5.05;;
37907;SDS011;23740;51.550;6.846;2023-07-09T10:46:13;5.13;;;4.63;;
37907;SDS011;23740;51.550;6.846;2023-07-09T10:48:43;4.85;;;4.25;;
37907;SDS011;23740;51.550;6.846;2023-07-09T10:51:16;5.43;;;4.57;;
37907;SDS011;23740;51.550;6.846;2023-07-09T10:53:48;5.28;;;4.78;;
37907;SDS011;23740;51.550;6.846;2023-07-09T10:56:19;5.20;;;4.30;;
37907;SDS011;23740;51.550;6.846;2023-07-09T10:58:53;5.85;;;5.35;;
37907;SDS011;23740;51.550;6.846;2023-07-09T11:01:27;4.70;;;4.25;;
37907;SDS011;23740;51.550;6.846;2023-07-09T11:03:59;4.85;;;4.10;;
37907;SDS011;23740;51.550;6.846;2023-07-09T11:06:32;5.13;;;4.63;;
37907;SDS011;23740;51.550;6.846;2023-07-09T11:09:02;4.07;;;3.78;;
37907;SDS011;23740;51.550;6.846;2023-07-09T11:11:33;4.40;;;3.95;;
37907;SDS011;23740;51.550;6.846;2023-07-09T11:14:03;5.13;;;4.82;;
37907;SDS011;23740;51.550;6.846;2023-07-09T11:16:37;5.03;;;4.32;;
37907;SDS011;23740;51.550;6.846;2023-07-09T11:19:13;4.35;;;4.05;;
37907;SDS011;23740;51.550;6.846;2023-07-09T11:21:56;4.57;;;4.18;;
37907;SDS011;23740;51.550;6.846;2023-07-09T11:24:29;4.90;;;4.40;;
37907;SDS011;23740;51.550;6.846;2023-07-09T11:26:59;4.82;;;4.43;;
37907;SDS011;23740;51.550;6.846;2023-07-09T11:29:27;5.18;;;4.78;;
37907;SDS011;23740;51.550;6.846;2023-07-09T11:32:06;4.65;;;4.18;;
37907;SDS011;23740;51.550;6.846;2023-07-09T11:34:35;3.85;;;3.50;;
37907;SDS011;23740;51.550;6.846;2023-07-09T11:37:15;4.38;;;4.00;;
37907;SDS011;23740;51.550;6.846;2023-07-09T11:39:45;4.35;;;3.97;;
37907;SDS011;23740;51.550;6.846;2023-07-09T11:42:23;4.53;;;4.20;;
37907;SDS011;23740;51.550;6.846;2023-07-09T11:44:54;4.80;;;4.18;;
37907;SDS011;23740;51.550;6.846;2023-07-09T11:47:27;4.45;;;3.88;;
37907;SDS011;23740;51.550;6.846;2023-07-09T11:49:58;4.50;;;4.00;;
37907;SDS011;23740;51.550;6.846;2023-07-09T11:52:30;4.40;;;4.00;;
37907;SDS011;23740;51.550;6.846;2023-07-09T11:55:01;3.85;;;3.55;;
37907;SDS011;23740;51.550;6.846;2023-07-09T11:57:30;3.95;;;3.65;;
37907;SDS011;23740;51.550;6.846;2023-07-09T11:59:58;4.55;;;4.15;;
37907;SDS011;23740;51.550;6.846;2023-07-09T12:02:29;4.20;;;3.75;;
37907;SDS011;23740;51.550;6.846;2023-07-09T12:05:00;5.30;;;4.60;;
37907;SDS011;23740;51.550;6.846;2023-07-09T12:07:31;4.95;;;4.55;;
37907;SDS011;23740;51.550;6.846;2023-07-09T12:09:59;6.68;;;6.07;;
37907;SDS011;23740;51.550;6.846;2023-07-09T12:12:30;4.82;;;4.43;;
37907;SDS011;23740;51.550;6.846;2023-07-09T12:14:58;4.82;;;4.43;;
37907;SDS011;23740;51.550;6.846;2023-07-09T12:17:26;4.97;;;4.35;;
37907;SDS011;23740;51.550;6.846;2023-07-09T12:19:56;5.00;;;4.57;;
37907;SDS011;23740;51.550;6.846;2023-07-09T12:22:24;5.10;;;4.60;;
37907;SDS011;23740;51.550;6.846;2023-07-09T12:24:54;4.88;;;4.50;;
37907;SDS011;23740;51.550;6.846;2023-07-09T12:27:23;5.65;;;5.15;;
37907;SDS011;23740;51.550;6.846;2023-07-09T12:29:53;5.75;;;5.25;;
37907;SDS011;23740;51.550;6.846;2023-07-09T12:32:21;5.20;;;4.75;;
37907;SDS011;23740;51.550;6.846;2023-07-09T12:37:23;4.55;;;4.15;;
37907;SDS011;23740;51.550;6.846;2023-07-09T12:39:54;5.95;;;5.55;;
37907;SDS011;23740;51.550;6.846;2023-07-09T12:42:24;4.80;;;4.22;;
37907;SDS011;23740;51.550;6.846;2023-07-09T12:44:58;5.00;;;4.57;;
37907;SDS011;23740;51.550;6.846;2023-07-09T12:47:27;5.32;;;4.57;;
37907;SDS011;23740;51.550;6.846;2023-07-09T12:50:00;6.63;;;5.97;;
37907;SDS011;23740;51.550;6.846;2023-07-09T12:52:28;5.03;;;4.57;;
37907;SDS011;23740;51.550;6.846;2023-07-09T12:54:59;5.88;;;4.25;;
37907;SDS011;23740;51.550;6.846;2023-07-09T12:57:28;5.82;;;5.43;;
37907;SDS011;23740;51.550;6.846;2023-07-09T12:59:57;5.43;;;4.28;;
37907;SDS011;23740;51.550;6.846;2023-07-09T13:02:26;5.28;;;4.78;;
37907;SDS011;23740;51.550;6.846;2023-07-09T13:04:59;4.70;;;4.30;;
37907;SDS011;23740;51.550;6.846;2023-07-09T13:07:30;5.28;;;4.40;;
37907;SDS011;23740;51.550;6.846;2023-07-09T13:10:06;7.18;;;5.38;;
37907;SDS011;23740;51.550;6.846;2023-07-09T13:12:41;5.68;;;5.18;;
37907;SDS011;23740;51.550;6.846;2023-07-09T13:15:20;5.25;;;4.85;;
37907;SDS011;23740;51.550;6.846;2023-07-09T13:17:56;7.55;;;5.72;;
37907;SDS011;23740;51.550;6.846;2023-07-09T13:20:26;5.05;;;4.55;;
37907;SDS011;23740;51.550;6.846;2023-07-09T13:22:54;4.78;;;4.43;;
37907;SDS011;23740;51.550;6.846;2023-07-09T13:25:24;4.70;;;4.30;;
37907;SDS011;23740;51.550;6.846;2023-07-09T13:28:14;6.20;;;5.32;;
37907;SDS011;23740;51.550;6.846;2023-07-09T13:30:44;5.45;;;4.15;;
37907;SDS011;23740;51.550;6.846;2023-07-09T13:33:11;5.20;;;4.80;;
37907;SDS011;23740;51.550;6.846;2023-07-09T13:35:40;6.25;;;5.05;;
37907;SDS011;23740;51.550;6.846;2023-07-09T13:38:14;5.45;;;4.97;;
37907;SDS011;23740;51.550;6.846;2023-07-09T13:40:45;6.03;;;5.25;;
37907;SDS011;23740;51.550;6.846;2023-07-09T13:43:14;6.15;;;5.55;;
37907;SDS011;23740;51.550;6.846;2023-07-09T13:45:43;5.20;;;4.70;;
37907;SDS011;23740;51.550;6.846;2023-07-09T13:48:15;5.45;;;4.72;;
37907;SDS011;23740;51.550;6.846;2023-07-09T13:50:44;5.22;;;4.72;;
37907;SDS011;23740;51.550;6.846;2023-07-09T13:53:15;5.00;;;4.57;;
37907;SDS011;23740;51.550;6.846;2023-07-09T13:55:46;5.82;;;5.20;;
37907;SDS011;23740;51.550;6.846;2023-07-09T13:58:16;5.65;;;4.63;;
37907;SDS011;23740;51.550;6.846;2023-07-09T14:00:46;5.63;;;4.70;;
37907;SDS011;23740;51.550;6.846;2023-07-09T14:03:17;6.18;;;5.50;;
37907;SDS011;23740;51.550;6.846;2023-07-09T14:05:47;6.82;;;6.03;;
37907;SDS011;23740;51.550;6.846;2023-07-09T14:08:16;7.93;;;5.07;;
37907;SDS011;23740;51.550;6.846;2023-07-09T14:10:48;6.20;;;5.22;;
37907;SDS011;23740;51.550;6.846;2023-07-09T14:13:17;9.55;;;5.90;;
37907;SDS011;23740;51.550;6.846;2023-07-09T14:15:46;5.97;;;5.47;;
37907;SDS011;23740;51.550;6.846;2023-07-09T14:18:15;6.63;;;6.05;;
37907;SDS011;23740;51.550;6.846;2023-07-09T14:20:44;7.22;;;5.55;;
37907;SDS011;23740;51.550;6.846;2023-07-09T14:23:16;6.15;;;5.40;;
37907;SDS011;23740;51.550;6.846;2023-07-09T14:25:44;6.07;;;5.35;;
37907;SDS011;23740;51.550;6.846;2023-07-09T14:28:15;7.05;;;5.38;;
37907;SDS011;23740;51.550;6.846;2023-07-09T14:30:44;6.53;;;5.45;;
37907;SDS011;23740;51.550;6.846;2023-07-09T14:33:13;5.85;;;5.20;;
37907;SDS011;23740;51.550;6.846;2023-07-09T14:35:42;5.47;;;4.97;;
37907;SDS011;23740;51.550;6.846;2023-07-09T14:38:14;5.63;;;5.03;;
37907;SDS011;23740;51.550;6.846;2023-07-09T14:40:44;5.38;;;4.45;;
37907;SDS011;23740;51.550;6.846;2023-07-09T14:43:13;5.65;;;5.10;;
37907;SDS011;23740;51.550;6.846;2023-07-09T14:45:42;6.30;;;5.20;;
37907;SDS011;23740;51.550;6.846;2023-07-09T14:48:11;6.07;;;4.05;;
37907;SDS011;23740;51.550;6.846;2023-07-09T14:50:42;4.45;;;3.20;;
37907;SDS011;23740;51.550;6.846;2023-07-09T14:53:12;4.13;;;3.22;;
37907;SDS011;23740;51.550;6.846;2023-07-09T14:55:41;5.15;;;3.33;;
37907;SDS011;23740;51.550;6.846;2023-07-09T14:58:11;4.75;;;3.53;;
37907;SDS011;23740;51.550;6.846;2023-07-09T15:00:43;4.13;;;3.60;;
37907;SDS011;23740;51.550;6.846;2023-07-09T15:03:18;4.75;;;3.50;;
37907;SDS011;23740;51.550;6.846;2023-07-09T15:05:46;4.45;;;4.05;;
37907;SDS011;23740;51.550;6.846;2023-07-09T15:08:15;4.78;;;4.28;;
37907;SDS011;23740;51.550;6.846;2023-07-09T15:10:44;7.07;;;4.25;;
37907;SDS011;23740;51.550;6.846;2023-07-09T15:13:17;7.38;;;5.78;;
37907;SDS011;23740;51.550;6.846;2023-07-09T15:15:46;8.88;;;5.22;;
37907;SDS011;23740;51.550;6.846;2023-07-09T15:18:15;6.68;;;5.35;;